sensor_id;sensor_type;location;lat;lon;timestamp;P1;durP1;ratioP1;P2;durP2;ratioP2
70322;SDS011;57735;56.264;43.898;2022-10-16T00:02:28;14.52;;;6.72;;
70322;SDS011;57735;56.264;43.898;2022-10-16T00:04:58;16.00;;;8.13;;
70322;SDS011;57735;56.264;43.898;2022-10-16T00:07:29;13.52;;;6.75;;
70322;SDS011;57735;56.264;43.898;2022-10-16T00:10:00;16.33;;;7.13;;
70322;SDS011;57735;56.264;43.898;2022-10-16T00:12:33;17.90;;;7.72;;
70322;SDS011;57735;56.264;43.898;2022-10-16T00:15:04;17.30;;;8.18;;
70322;SDS011;57735;56.264;43.898;2022-10-16T00:17:36;28.08;;;7.95;;
70322;SDS011;57735;56.264;43.898;2022-10-16T00:20:07;19.25;;;8.25;;
70322;SDS011;57735;56.264;43.898;2022-10-16T00:22:57;15.30;;;8.02;;
70322;SDS011;57735;56.264;43.898;2022-10-16T00:25:28;22.42;;;8.70;;
70322;SDS011;57735;56.264;43.898;2022-10-16T00:28:00;22.05;;;9.20;;
70322;SDS011;57735;56.264;43.898;2022-10-16T00:30:31;20.02;;;8.23;;
70322;SDS011;57735;56.264;43.898;2022-10-16T00:33:02;15.77;;;8.23;;
70322;SDS011;57735;56.264;43.898;2022-10-16T00:35:32;17.73;;;7.57;;
70322;SDS011;57735;56.264;43.898;2022-10-16T00:38:03;21.25;;;6.90;;
70322;SDS011;57735;56.264;43.898;2022-10-16T00:40:34;15.05;;;7.30;;
70322;SDS011;57735;56.264;43.898;2022-10-16T00:43:32;16.83;;;7.53;;
70322;SDS011;57735;56.264;43.898;2022-10-16T00:46:25;17.00;;;7.80;;
70322;SDS011;57735;56.264;43.898;2022-10-16T00:49:06;13.73;;;6.88;;
70322;SDS011;57735;56.264;43.898;2022-10-16T00:51:42;18.55;;;7.07;;
70322;SDS011;57735;56.264;43.898;2022-10-16T00:54:26;17.55;;;6.53;;
70322;SDS011;57735;56.264;43.898;2022-10-16T00:57:03;15.35;;;6.97;;
70322;SDS011;57735;56.264;43.898;2022-10-16T01:02:09;14.02;;;6.65;;
70322;SDS011;57735;56.264;43.898;2022-10-16T01:04:48;12.45;;;6.22;;
70322;SDS011;57735;56.264;43.898;2022-10-16T01:07:36;12.63;;;6.13;;
70322;SDS011;57735;56.264;43.898;2022-10-16T01:13:23;14.32;;;6.93;;
70322;SDS011;57735;56.264;43.898;2022-10-16T01:16:08;15.27;;;7.45;;
70322;SDS011;57735;56.264;43.898;2022-10-16T01:18:47;15.13;;;7.07;;
70322;SDS011;57735;56.264;43.898;2022-10-16T01:21:28;14.98;;;6.75;;
70322;SDS011;57735;56.264;43.898;2022-10-16T01:27:01;13.43;;;6.63;;
70322;SDS011;57735;56.264;43.898;2022-10-16T01:35:03;18.50;;;7.00;;
70322;SDS011;57735;56.264;43.898;2022-10-16T01:37:51;14.10;;;6.53;;
70322;SDS011;57735;56.264;43.898;2022-10-16T01:40:34;11.32;;;6.43;;
70322;SDS011;57735;56.264;43.898;2022-10-16T01:43:08;10.77;;;6.30;;
70322;SDS011;57735;56.264;43.898;2022-10-16T01:48:16;12.40;;;5.50;;
70322;SDS011;57735;56.264;43.898;2022-10-16T01:53:24;11.25;;;5.60;;
70322;SDS011;57735;56.264;43.898;2022-10-16T01:55:59;14.68;;;6.32;;
70322;SDS011;57735;56.264;43.898;2022-10-16T01:58:33;12.85;;;5.80;;
70322;SDS011;57735;56.264;43.898;2022-10-16T02:01:08;10.70;;;5.57;;
70322;SDS011;57735;56.264;43.898;2022-10-16T02:03:41;16.63;;;6.78;;
70322;SDS011;57735;56.264;43.898;2022-10-16T02:06:14;10.27;;;5.72;;
70322;SDS011;57735;56.264;43.898;2022-10-16T02:08:45;13.50;;;6.00;;
70322;SDS011;57735;56.264;43.898;2022-10-16T02:11:16;14.15;;;6.20;;
70322;SDS011;57735;56.264;43.898;2022-10-16T02:13:58;13.65;;;5.90;;
70322;SDS011;57735;56.264;43.898;2022-10-16T02:16:37;11.55;;;5.20;;
70322;SDS011;57735;56.264;43.898;2022-10-16T02:19:09;15.25;;;6.10;;
70322;SDS011;57735;56.264;43.898;2022-10-16T02:21:58;12.90;;;5.30;;
70322;SDS011;57735;56.264;43.898;2022-10-16T02:27:22;13.43;;;6.57;;
70322;SDS011;57735;56.264;43.898;2022-10-16T02:29:56;13.80;;;7.18;;
70322;SDS011;57735;56.264;43.898;2022-10-16T02:32:41;12.05;;;5.95;;
70322;SDS011;57735;56.264;43.898;2022-10-16T02:35:15;10.93;;;5.60;;
70322;SDS011;57735;56.264;43.898;2022-10-16T02:37:49;11.18;;;6.05;;
70322;SDS011;57735;56.264;43.898;2022-10-16T02:40:21;12.40;;;6.45;;
70322;SDS011;57735;56.264;43.898;2022-10-16T02:42:53;13.70;;;5.60;;
70322;SDS011;57735;56.264;43.898;2022-10-16T02:45:24;15.75;;;6.85;;
70322;SDS011;57735;56.264;43.898;2022-10-16T02:47:56;16.58;;;6.38;;
70322;SDS011;57735;56.264;43.898;2022-10-16T02:50:27;14.20;;;6.20;;
70322;SDS011;57735;56.264;43.898;2022-10-16T02:52:57;14.13;;;6.10;;
70322;SDS011;57735;56.264;43.898;2022-10-16T02:55:28;13.07;;;5.65;;
70322;SDS011;57735;56.264;43.898;2022-10-16T02:57:59;11.57;;;5.72;;
70322;SDS011;57735;56.264;43.898;2022-10-16T03:00:30;16.00;;;6.50;;
70322;SDS011;57735;56.264;43.898;2022-10-16T03:03:00;14.93;;;6.03;;
70322;SDS011;57735;56.264;43.898;2022-10-16T03:05:31;13.65;;;6.03;;
70322;SDS011;57735;56.264;43.898;2022-10-16T03:08:02;16.38;;;6.05;;
70322;SDS011;57735;56.264;43.898;2022-10-16T03:10:35;14.10;;;6.20;;
70322;SDS011;57735;56.264;43.898;2022-10-16T03:13:06;10.63;;;6.15;;
70322;SDS011;57735;56.264;43.898;2022-10-16T03:15:37;13.68;;;6.53;;
70322;SDS011;57735;56.264;43.898;2022-10-16T03:18:07;14.23;;;5.65;;
70322;SDS011;57735;56.264;43.898;2022-10-16T03:20:38;14.63;;;5.97;;
70322;SDS011;57735;56.264;43.898;2022-10-16T03:23:09;14.77;;;5.97;;
70322;SDS011;57735;56.264;43.898;2022-10-16T03:25:42;18.10;;;6.35;;
70322;SDS011;57735;56.264;43.898;2022-10-16T03:28:13;10.00;;;5.85;;
70322;SDS011;57735;56.264;43.898;2022-10-16T03:30:44;9.80;;;6.25;;
70322;SDS011;57735;56.264;43.898;2022-10-16T03:33:15;13.13;;;6.10;;
70322;SDS011;57735;56.264;43.898;2022-10-16T03:35:50;12.85;;;6.15;;
70322;SDS011;57735;56.264;43.898;2022-10-16T03:38:23;13.63;;;6.25;;
70322;SDS011;57735;56.264;43.898;2022-10-16T03:40:53;13.73;;;6.30;;
70322;SDS011;57735;56.264;43.898;2022-10-16T03:43:24;13.20;;;6.38;;
70322;SDS011;57735;56.264;43.898;2022-10-16T03:45:55;12.23;;;5.50;;
70322;SDS011;57735;56.264;43.898;2022-10-16T03:48:26;12.68;;;7.05;;
70322;SDS011;57735;56.264;43.898;2022-10-16T03:50:59;13.95;;;6.45;;
70322;SDS011;57735;56.264;43.898;2022-10-16T03:53:32;18.02;;;8.25;;
70322;SDS011;57735;56.264;43.898;2022-10-16T03:56:06;15.35;;;6.72;;
70322;SDS011;57735;56.264;43.898;2022-10-16T03:58:39;15.40;;;7.88;;
70322;SDS011;57735;56.264;43.898;2022-10-16T04:01:10;29.42;;;11.00;;
70322;SDS011;57735;56.264;43.898;2022-10-16T04:03:41;24.45;;;8.38;;
70322;SDS011;57735;56.264;43.898;2022-10-16T04:06:14;13.45;;;7.28;;
70322;SDS011;57735;56.264;43.898;2022-10-16T04:08:45;21.33;;;8.20;;
70322;SDS011;57735;56.264;43.898;2022-10-16T04:11:16;14.90;;;7.07;;
70322;SDS011;57735;56.264;43.898;2022-10-16T04:13:46;15.23;;;6.75;;
70322;SDS011;57735;56.264;43.898;2022-10-16T04:16:17;13.95;;;6.32;;
70322;SDS011;57735;56.264;43.898;2022-10-16T04:18:48;11.82;;;5.85;;
70322;SDS011;57735;56.264;43.898;2022-10-16T04:21:19;15.27;;;6.10;;
70322;SDS011;57735;56.264;43.898;2022-10-16T04:23:50;12.57;;;5.88;;
70322;SDS011;57735;56.264;43.898;2022-10-16T04:26:21;16.58;;;7.18;;
70322;SDS011;57735;56.264;43.898;2022-10-16T04:28:52;17.77;;;6.85;;
70322;SDS011;57735;56.264;43.898;2022-10-16T04:31:22;14.13;;;6.07;;
70322;SDS011;57735;56.264;43.898;2022-10-16T04:33:53;14.10;;;6.55;;
70322;SDS011;57735;56.264;43.898;2022-10-16T04:36:24;13.63;;;6.40;;
70322;SDS011;57735;56.264;43.898;2022-10-16T04:38:55;14.93;;;6.57;;
70322;SDS011;57735;56.264;43.898;2022-10-16T04:41:29;15.97;;;7.00;;
70322;SDS011;57735;56.264;43.898;2022-10-16T04:44:02;15.40;;;6.38;;
70322;SDS011;57735;56.264;43.898;2022-10-16T04:46:33;14.77;;;6.28;;
70322;SDS011;57735;56.264;43.898;2022-10-16T04:49:06;13.70;;;6.68;;
70322;SDS011;57735;56.264;43.898;2022-10-16T04:51:37;16.80;;;7.05;;
70322;SDS011;57735;56.264;43.898;2022-10-16T04:54:08;22.58;;;7.88;;
70322;SDS011;57735;56.264;43.898;2022-10-16T04:56:40;20.48;;;7.50;;
70322;SDS011;57735;56.264;43.898;2022-10-16T04:59:17;16.55;;;7.55;;
70322;SDS011;57735;56.264;43.898;2022-10-16T05:01:48;33.50;;;8.07;;
70322;SDS011;57735;56.264;43.898;2022-10-16T05:04:19;17.85;;;9.00;;
70322;SDS011;57735;56.264;43.898;2022-10-16T05:06:50;18.55;;;9.02;;
70322;SDS011;57735;56.264;43.898;2022-10-16T05:09:23;15.02;;;7.03;;
70322;SDS011;57735;56.264;43.898;2022-10-16T05:11:54;18.42;;;7.13;;
70322;SDS011;57735;56.264;43.898;2022-10-16T05:14:24;14.35;;;7.10;;
70322;SDS011;57735;56.264;43.898;2022-10-16T05:16:55;15.57;;;7.82;;
70322;SDS011;57735;56.264;43.898;2022-10-16T05:19:26;15.23;;;7.25;;
70322;SDS011;57735;56.264;43.898;2022-10-16T05:21:57;27.10;;;7.50;;
70322;SDS011;57735;56.264;43.898;2022-10-16T05:24:30;19.85;;;8.20;;
70322;SDS011;57735;56.264;43.898;2022-10-16T05:27:00;20.67;;;8.25;;
70322;SDS011;57735;56.264;43.898;2022-10-16T05:29:31;20.13;;;8.20;;
70322;SDS011;57735;56.264;43.898;2022-10-16T05:32:05;17.08;;;7.15;;
70322;SDS011;57735;56.264;43.898;2022-10-16T05:34:36;14.68;;;7.72;;
70322;SDS011;57735;56.264;43.898;2022-10-16T05:37:07;19.70;;;7.25;;
70322;SDS011;57735;56.264;43.898;2022-10-16T05:39:38;15.07;;;7.60;;
70322;SDS011;57735;56.264;43.898;2022-10-16T05:42:09;16.45;;;6.75;;
70322;SDS011;57735;56.264;43.898;2022-10-16T05:44:40;17.77;;;7.50;;
70322;SDS011;57735;56.264;43.898;2022-10-16T05:47:12;17.83;;;7.50;;
70322;SDS011;57735;56.264;43.898;2022-10-16T05:49:44;19.90;;;8.00;;
70322;SDS011;57735;56.264;43.898;2022-10-16T05:52:15;15.50;;;7.20;;
70322;SDS011;57735;56.264;43.898;2022-10-16T05:54:45;18.48;;;7.35;;
70322;SDS011;57735;56.264;43.898;2022-10-16T05:57:16;16.98;;;7.43;;
70322;SDS011;57735;56.264;43.898;2022-10-16T05:59:47;13.38;;;7.15;;
70322;SDS011;57735;56.264;43.898;2022-10-16T06:02:18;17.27;;;7.38;;
70322;SDS011;57735;56.264;43.898;2022-10-16T06:04:51;18.60;;;7.40;;
70322;SDS011;57735;56.264;43.898;2022-10-16T06:07:23;20.35;;;8.65;;
70322;SDS011;57735;56.264;43.898;2022-10-16T06:09:54;22.23;;;8.50;;
70322;SDS011;57735;56.264;43.898;2022-10-16T06:12:26;19.00;;;7.65;;
70322;SDS011;57735;56.264;43.898;2022-10-16T06:14:59;15.35;;;7.78;;
70322;SDS011;57735;56.264;43.898;2022-10-16T06:17:30;16.70;;;8.15;;
70322;SDS011;57735;56.264;43.898;2022-10-16T06:20:03;16.98;;;7.25;;
70322;SDS011;57735;56.264;43.898;2022-10-16T06:22:34;14.55;;;8.23;;
70322;SDS011;57735;56.264;43.898;2022-10-16T06:25:06;20.40;;;7.65;;
70322;SDS011;57735;56.264;43.898;2022-10-16T06:27:40;18.98;;;7.70;;
70322;SDS011;57735;56.264;43.898;2022-10-16T06:30:11;20.02;;;8.23;;
70322;SDS011;57735;56.264;43.898;2022-10-16T06:32:42;15.95;;;7.97;;
70322;SDS011;57735;56.264;43.898;2022-10-16T06:35:12;17.00;;;7.88;;
70322;SDS011;57735;56.264;43.898;2022-10-16T06:37:45;16.35;;;7.70;;
70322;SDS011;57735;56.264;43.898;2022-10-16T06:40:19;14.25;;;7.45;;
70322;SDS011;57735;56.264;43.898;2022-10-16T06:42:54;14.43;;;7.32;;
70322;SDS011;57735;56.264;43.898;2022-10-16T06:45:25;20.30;;;7.35;;
70322;SDS011;57735;56.264;43.898;2022-10-16T06:47:56;16.30;;;7.90;;
70322;SDS011;57735;56.264;43.898;2022-10-16T06:50:26;15.02;;;7.15;;
70322;SDS011;57735;56.264;43.898;2022-10-16T06:52:57;19.67;;;7.57;;
70322;SDS011;57735;56.264;43.898;2022-10-16T06:55:28;19.20;;;7.88;;
70322;SDS011;57735;56.264;43.898;2022-10-16T06:57:59;13.88;;;8.13;;
70322;SDS011;57735;56.264;43.898;2022-10-16T07:00:29;17.02;;;7.65;;
70322;SDS011;57735;56.264;43.898;2022-10-16T07:03:00;22.08;;;7.78;;
70322;SDS011;57735;56.264;43.898;2022-10-16T07:05:31;16.35;;;7.78;;
70322;SDS011;57735;56.264;43.898;2022-10-16T07:08:04;16.65;;;7.70;;
70322;SDS011;57735;56.264;43.898;2022-10-16T07:10:35;19.60;;;8.32;;
70322;SDS011;57735;56.264;43.898;2022-10-16T07:13:06;15.43;;;7.53;;
70322;SDS011;57735;56.264;43.898;2022-10-16T07:15:43;17.73;;;7.78;;
70322;SDS011;57735;56.264;43.898;2022-10-16T07:18:16;15.80;;;7.40;;
70322;SDS011;57735;56.264;43.898;2022-10-16T07:20:50;21.33;;;8.52;;
70322;SDS011;57735;56.264;43.898;2022-10-16T07:23:20;14.48;;;7.38;;
70322;SDS011;57735;56.264;43.898;2022-10-16T07:25:53;16.77;;;7.65;;
70322;SDS011;57735;56.264;43.898;2022-10-16T07:28:25;19.27;;;7.85;;
70322;SDS011;57735;56.264;43.898;2022-10-16T07:30:59;18.95;;;7.43;;
70322;SDS011;57735;56.264;43.898;2022-10-16T07:33:35;23.27;;;8.52;;
70322;SDS011;57735;56.264;43.898;2022-10-16T07:36:05;18.75;;;7.80;;
70322;SDS011;57735;56.264;43.898;2022-10-16T07:38:37;22.55;;;8.30;;
70322;SDS011;57735;56.264;43.898;2022-10-16T07:41:11;14.18;;;8.15;;
70322;SDS011;57735;56.264;43.898;2022-10-16T07:43:47;16.42;;;8.77;;
70322;SDS011;57735;56.264;43.898;2022-10-16T07:46:20;22.13;;;8.02;;
70322;SDS011;57735;56.264;43.898;2022-10-16T07:48:52;21.80;;;7.97;;
70322;SDS011;57735;56.264;43.898;2022-10-16T07:51:24;18.10;;;8.57;;
70322;SDS011;57735;56.264;43.898;2022-10-16T07:53:56;17.17;;;8.82;;
70322;SDS011;57735;56.264;43.898;2022-10-16T07:56:26;24.20;;;9.02;;
70322;SDS011;57735;56.264;43.898;2022-10-16T07:58:57;18.05;;;8.73;;
70322;SDS011;57735;56.264;43.898;2022-10-16T08:01:28;19.70;;;9.02;;
70322;SDS011;57735;56.264;43.898;2022-10-16T08:03:59;22.85;;;9.50;;
70322;SDS011;57735;56.264;43.898;2022-10-16T08:06:30;21.52;;;8.90;;
70322;SDS011;57735;56.264;43.898;2022-10-16T08:09:08;18.38;;;9.80;;
70322;SDS011;57735;56.264;43.898;2022-10-16T08:11:39;22.52;;;9.48;;
70322;SDS011;57735;56.264;43.898;2022-10-16T08:14:10;30.20;;;11.25;;
70322;SDS011;57735;56.264;43.898;2022-10-16T08:16:40;21.15;;;9.73;;
70322;SDS011;57735;56.264;43.898;2022-10-16T08:19:11;23.65;;;10.07;;
70322;SDS011;57735;56.264;43.898;2022-10-16T08:21:42;24.75;;;9.57;;
70322;SDS011;57735;56.264;43.898;2022-10-16T08:24:13;22.85;;;9.57;;
70322;SDS011;57735;56.264;43.898;2022-10-16T08:26:43;27.33;;;10.48;;
70322;SDS011;57735;56.264;43.898;2022-10-16T08:29:14;21.30;;;10.05;;
70322;SDS011;57735;56.264;43.898;2022-10-16T08:31:45;19.35;;;8.90;;
70322;SDS011;57735;56.264;43.898;2022-10-16T08:34:18;24.40;;;9.90;;
70322;SDS011;57735;56.264;43.898;2022-10-16T08:36:49;19.05;;;9.63;;
70322;SDS011;57735;56.264;43.898;2022-10-16T08:39:23;18.60;;;8.90;;
70322;SDS011;57735;56.264;43.898;2022-10-16T08:44:59;19.27;;;10.13;;
70322;SDS011;57735;56.264;43.898;2022-10-16T08:47:50;17.58;;;9.38;;
70322;SDS011;57735;56.264;43.898;2022-10-16T08:50:43;18.33;;;8.88;;
70322;SDS011;57735;56.264;43.898;2022-10-16T08:53:21;16.95;;;9.25;;
70322;SDS011;57735;56.264;43.898;2022-10-16T08:55:56;16.48;;;8.75;;
70322;SDS011;57735;56.264;43.898;2022-10-16T08:58:29;23.75;;;9.43;;
70322;SDS011;57735;56.264;43.898;2022-10-16T09:01:01;19.30;;;9.20;;
70322;SDS011;57735;56.264;43.898;2022-10-16T09:06:45;19.50;;;8.93;;
70322;SDS011;57735;56.264;43.898;2022-10-16T09:12:18;22.40;;;8.75;;
70322;SDS011;57735;56.264;43.898;2022-10-16T09:14:57;19.30;;;9.13;;
70322;SDS011;57735;56.264;43.898;2022-10-16T09:17:32;21.85;;;9.95;;
70322;SDS011;57735;56.264;43.898;2022-10-16T09:20:18;21.48;;;9.68;;
70322;SDS011;57735;56.264;43.898;2022-10-16T09:22:51;23.75;;;10.05;;
70322;SDS011;57735;56.264;43.898;2022-10-16T09:25:31;16.88;;;9.18;;
70322;SDS011;57735;56.264;43.898;2022-10-16T09:28:07;22.50;;;9.13;;
70322;SDS011;57735;56.264;43.898;2022-10-16T09:30:39;21.33;;;9.05;;
70322;SDS011;57735;56.264;43.898;2022-10-16T09:33:11;23.90;;;9.90;;
70322;SDS011;57735;56.264;43.898;2022-10-16T09:35:47;23.48;;;9.50;;
70322;SDS011;57735;56.264;43.898;2022-10-16T09:38:26;23.95;;;10.27;;
70322;SDS011;57735;56.264;43.898;2022-10-16T09:41:19;19.17;;;9.90;;
70322;SDS011;57735;56.264;43.898;2022-10-16T09:43:55;21.33;;;9.35;;
70322;SDS011;57735;56.264;43.898;2022-10-16T09:46:36;19.10;;;8.90;;
70322;SDS011;57735;56.264;43.898;2022-10-16T09:49:24;24.95;;;10.23;;
70322;SDS011;57735;56.264;43.898;2022-10-16T09:52:11;19.15;;;9.77;;
70322;SDS011;57735;56.264;43.898;2022-10-16T09:54:57;19.77;;;9.02;;
70322;SDS011;57735;56.264;43.898;2022-10-16T09:57:33;24.83;;;11.13;;
70322;SDS011;57735;56.264;43.898;2022-10-16T10:00:04;22.48;;;10.02;;
70322;SDS011;57735;56.264;43.898;2022-10-16T10:02:39;23.70;;;10.35;;
70322;SDS011;57735;56.264;43.898;2022-10-16T10:05:26;22.02;;;9.95;;
70322;SDS011;57735;56.264;43.898;2022-10-16T10:07:59;21.80;;;10.07;;
70322;SDS011;57735;56.264;43.898;2022-10-16T10:10:38;20.67;;;10.00;;
70322;SDS011;57735;56.264;43.898;2022-10-16T10:13:19;26.40;;;10.10;;
70322;SDS011;57735;56.264;43.898;2022-10-16T10:15:51;26.70;;;10.55;;
70322;SDS011;57735;56.264;43.898;2022-10-16T10:18:23;23.30;;;10.38;;
70322;SDS011;57735;56.264;43.898;2022-10-16T10:21:01;17.88;;;8.75;;
70322;SDS011;57735;56.264;43.898;2022-10-16T10:23:33;18.10;;;8.52;;
70322;SDS011;57735;56.264;43.898;2022-10-16T10:26:18;17.27;;;6.50;;
70322;SDS011;57735;56.264;43.898;2022-10-16T10:28:55;21.58;;;6.70;;
70322;SDS011;57735;56.264;43.898;2022-10-16T10:37:43;16.10;;;6.10;;
70322;SDS011;57735;56.264;43.898;2022-10-16T10:40:23;14.73;;;6.85;;
70322;SDS011;57735;56.264;43.898;2022-10-16T10:43:25;13.02;;;5.93;;
70322;SDS011;57735;56.264;43.898;2022-10-16T10:46:26;11.50;;;5.85;;
70322;SDS011;57735;56.264;43.898;2022-10-16T10:57:57;22.35;;;7.63;;
70322;SDS011;57735;56.264;43.898;2022-10-16T11:00:49;13.07;;;6.22;;
70322;SDS011;57735;56.264;43.898;2022-10-16T11:06:22;11.35;;;5.18;;
70322;SDS011;57735;56.264;43.898;2022-10-16T11:09:06;10.48;;;5.03;;
70322;SDS011;57735;56.264;43.898;2022-10-16T11:11:50;11.07;;;4.32;;
70322;SDS011;57735;56.264;43.898;2022-10-16T11:14:26;13.00;;;4.60;;
70322;SDS011;57735;56.264;43.898;2022-10-16T11:17:01;11.05;;;4.38;;
70322;SDS011;57735;56.264;43.898;2022-10-16T11:30:43;12.65;;;5.18;;
70322;SDS011;57735;56.264;43.898;2022-10-16T11:44:06;11.75;;;5.90;;
70322;SDS011;57735;56.264;43.898;2022-10-16T11:46:40;11.77;;;5.35;;
70322;SDS011;57735;56.264;43.898;2022-10-16T11:49:19;8.43;;;4.30;;
70322;SDS011;57735;56.264;43.898;2022-10-16T11:51:59;17.27;;;7.10;;
70322;SDS011;57735;56.264;43.898;2022-10-16T11:57:53;11.52;;;6.22;;
70322;SDS011;57735;56.264;43.898;2022-10-16T12:00:37;13.75;;;5.18;;
70322;SDS011;57735;56.264;43.898;2022-10-16T12:03:25;23.77;;;6.13;;
70322;SDS011;57735;56.264;43.898;2022-10-16T12:08:43;11.23;;;5.72;;
70322;SDS011;57735;56.264;43.898;2022-10-16T12:16:53;16.63;;;5.80;;
70322;SDS011;57735;56.264;43.898;2022-10-16T12:19:25;13.43;;;6.88;;
70322;SDS011;57735;56.264;43.898;2022-10-16T12:21:59;18.08;;;7.47;;
70322;SDS011;57735;56.264;43.898;2022-10-16T12:24:36;13.27;;;6.13;;
70322;SDS011;57735;56.264;43.898;2022-10-16T12:27:23;20.50;;;6.82;;
70322;SDS011;57735;56.264;43.898;2022-10-16T12:29:59;15.02;;;5.68;;
70322;SDS011;57735;56.264;43.898;2022-10-16T12:32:35;9.00;;;4.85;;
70322;SDS011;57735;56.264;43.898;2022-10-16T12:35:19;13.95;;;5.00;;
70322;SDS011;57735;56.264;43.898;2022-10-16T12:37:52;11.02;;;4.80;;
70322;SDS011;57735;56.264;43.898;2022-10-16T12:40:31;16.52;;;4.68;;
70322;SDS011;57735;56.264;43.898;2022-10-16T12:43:39;11.98;;;4.55;;
70322;SDS011;57735;56.264;43.898;2022-10-16T12:48:45;13.60;;;4.55;;
70322;SDS011;57735;56.264;43.898;2022-10-16T12:51:51;10.00;;;4.70;;
70322;SDS011;57735;56.264;43.898;2022-10-16T13:08:17;10.75;;;4.35;;
70322;SDS011;57735;56.264;43.898;2022-10-16T13:17:16;14.73;;;4.65;;
70322;SDS011;57735;56.264;43.898;2022-10-16T13:22:46;9.95;;;3.95;;
70322;SDS011;57735;56.264;43.898;2022-10-16T13:28:14;10.50;;;4.88;;
70322;SDS011;57735;56.264;43.898;2022-10-16T13:30:56;14.50;;;4.72;;
70322;SDS011;57735;56.264;43.898;2022-10-16T13:36:18;11.07;;;4.88;;
70322;SDS011;57735;56.264;43.898;2022-10-16T13:41:39;10.82;;;4.80;;
70322;SDS011;57735;56.264;43.898;2022-10-16T13:44:15;12.80;;;4.50;;
70322;SDS011;57735;56.264;43.898;2022-10-16T13:46:58;13.63;;;5.47;;
70322;SDS011;57735;56.264;43.898;2022-10-16T13:49:31;11.07;;;5.00;;
70322;SDS011;57735;56.264;43.898;2022-10-16T13:52:02;9.07;;;4.63;;
70322;SDS011;57735;56.264;43.898;2022-10-16T13:54:32;10.70;;;4.65;;
70322;SDS011;57735;56.264;43.898;2022-10-16T13:57:06;13.27;;;4.50;;
70322;SDS011;57735;56.264;43.898;2022-10-16T13:59:40;13.32;;;4.90;;
70322;SDS011;57735;56.264;43.898;2022-10-16T14:02:17;21.95;;;5.80;;
70322;SDS011;57735;56.264;43.898;2022-10-16T14:04:57;12.95;;;5.63;;
70322;SDS011;57735;56.264;43.898;2022-10-16T14:07:30;13.27;;;4.85;;
70322;SDS011;57735;56.264;43.898;2022-10-16T14:10:06;10.52;;;5.05;;
70322;SDS011;57735;56.264;43.898;2022-10-16T14:13:01;18.25;;;6.03;;
70322;SDS011;57735;56.264;43.898;2022-10-16T14:15:35;26.23;;;9.32;;
70322;SDS011;57735;56.264;43.898;2022-10-16T14:18:13;21.17;;;9.25;;
70322;SDS011;57735;56.264;43.898;2022-10-16T14:20:52;28.08;;;9.20;;
70322;SDS011;57735;56.264;43.898;2022-10-16T14:23:28;19.35;;;8.70;;
70322;SDS011;57735;56.264;43.898;2022-10-16T14:28:43;25.00;;;8.35;;
70322;SDS011;57735;56.264;43.898;2022-10-16T14:33:49;25.83;;;9.63;;
70322;SDS011;57735;56.264;43.898;2022-10-16T14:36:23;21.52;;;9.60;;
70322;SDS011;57735;56.264;43.898;2022-10-16T14:38:59;30.30;;;9.85;;
70322;SDS011;57735;56.264;43.898;2022-10-16T14:41:41;21.90;;;8.73;;
70322;SDS011;57735;56.264;43.898;2022-10-16T14:44:17;24.50;;;10.00;;
70322;SDS011;57735;56.264;43.898;2022-10-16T14:46:49;20.20;;;8.50;;
70322;SDS011;57735;56.264;43.898;2022-10-16T14:49:20;28.02;;;10.63;;
70322;SDS011;57735;56.264;43.898;2022-10-16T14:51:53;16.45;;;7.20;;
70322;SDS011;57735;56.264;43.898;2022-10-16T14:54:25;20.33;;;6.82;;
70322;SDS011;57735;56.264;43.898;2022-10-16T14:56:56;15.55;;;7.03;;
70322;SDS011;57735;56.264;43.898;2022-10-16T14:59:41;20.95;;;7.40;;
70322;SDS011;57735;56.264;43.898;2022-10-16T15:02:28;14.98;;;6.35;;
70322;SDS011;57735;56.264;43.898;2022-10-16T15:05:15;17.13;;;7.72;;
70322;SDS011;57735;56.264;43.898;2022-10-16T15:07:49;13.68;;;5.85;;
70322;SDS011;57735;56.264;43.898;2022-10-16T15:10:24;19.17;;;7.20;;
70322;SDS011;57735;56.264;43.898;2022-10-16T15:12:56;15.57;;;5.50;;
70322;SDS011;57735;56.264;43.898;2022-10-16T15:15:37;18.08;;;6.35;;
70322;SDS011;57735;56.264;43.898;2022-10-16T15:18:10;15.55;;;6.35;;
70322;SDS011;57735;56.264;43.898;2022-10-16T15:20:41;17.48;;;6.70;;
70322;SDS011;57735;56.264;43.898;2022-10-16T15:23:19;16.52;;;6.20;;
70322;SDS011;57735;56.264;43.898;2022-10-16T15:25:55;14.68;;;6.10;;
70322;SDS011;57735;56.264;43.898;2022-10-16T15:28:26;15.45;;;5.97;;
70322;SDS011;57735;56.264;43.898;2022-10-16T15:30:57;12.32;;;5.50;;
70322;SDS011;57735;56.264;43.898;2022-10-16T15:33:28;15.32;;;5.97;;
70322;SDS011;57735;56.264;43.898;2022-10-16T15:38:33;18.13;;;6.72;;
70322;SDS011;57735;56.264;43.898;2022-10-16T15:41:05;13.93;;;6.07;;
70322;SDS011;57735;56.264;43.898;2022-10-16T15:43:35;11.65;;;5.78;;
70322;SDS011;57735;56.264;43.898;2022-10-16T15:46:08;12.98;;;6.10;;
70322;SDS011;57735;56.264;43.898;2022-10-16T15:48:44;20.50;;;6.78;;
70322;SDS011;57735;56.264;43.898;2022-10-16T15:51:15;16.30;;;6.50;;
70322;SDS011;57735;56.264;43.898;2022-10-16T15:53:48;12.85;;;5.70;;
70322;SDS011;57735;56.264;43.898;2022-10-16T15:56:20;10.32;;;5.40;;
70322;SDS011;57735;56.264;43.898;2022-10-16T15:58:55;17.58;;;5.53;;
70322;SDS011;57735;56.264;43.898;2022-10-16T16:01:29;18.90;;;6.35;;
70322;SDS011;57735;56.264;43.898;2022-10-16T16:04:05;12.52;;;5.53;;
70322;SDS011;57735;56.264;43.898;2022-10-16T16:06:36;11.35;;;5.20;;
70322;SDS011;57735;56.264;43.898;2022-10-16T16:09:09;8.93;;;5.10;;
70322;SDS011;57735;56.264;43.898;2022-10-16T16:11:40;11.60;;;4.97;;
70322;SDS011;57735;56.264;43.898;2022-10-16T16:14:12;13.13;;;4.85;;
70322;SDS011;57735;56.264;43.898;2022-10-16T16:16:44;15.32;;;5.32;;
70322;SDS011;57735;56.264;43.898;2022-10-16T16:19:14;21.05;;;6.85;;
70322;SDS011;57735;56.264;43.898;2022-10-16T16:21:47;15.82;;;5.57;;
70322;SDS011;57735;56.264;43.898;2022-10-16T16:24:19;14.50;;;5.55;;
70322;SDS011;57735;56.264;43.898;2022-10-16T16:26:53;15.23;;;6.70;;
70322;SDS011;57735;56.264;43.898;2022-10-16T16:29:23;13.70;;;5.85;;
70322;SDS011;57735;56.264;43.898;2022-10-16T16:31:54;16.55;;;6.43;;
70322;SDS011;57735;56.264;43.898;2022-10-16T16:34:27;19.65;;;7.20;;
70322;SDS011;57735;56.264;43.898;2022-10-16T16:36:59;16.15;;;7.05;;
70322;SDS011;57735;56.264;43.898;2022-10-16T16:39:29;14.98;;;6.18;;
70322;SDS011;57735;56.264;43.898;2022-10-16T16:42:00;15.50;;;6.85;;
70322;SDS011;57735;56.264;43.898;2022-10-16T16:44:33;20.00;;;6.63;;
70322;SDS011;57735;56.264;43.898;2022-10-16T16:47:06;16.00;;;6.22;;
70322;SDS011;57735;56.264;43.898;2022-10-16T16:49:37;13.00;;;5.95;;
70322;SDS011;57735;56.264;43.898;2022-10-16T16:52:07;19.70;;;5.88;;
70322;SDS011;57735;56.264;43.898;2022-10-16T16:54:38;16.42;;;5.93;;
70322;SDS011;57735;56.264;43.898;2022-10-16T16:57:09;13.02;;;5.93;;
70322;SDS011;57735;56.264;43.898;2022-10-16T16:59:40;15.98;;;6.47;;
70322;SDS011;57735;56.264;43.898;2022-10-16T17:02:10;16.55;;;6.22;;
70322;SDS011;57735;56.264;43.898;2022-10-16T17:04:41;15.10;;;6.25;;
70322;SDS011;57735;56.264;43.898;2022-10-16T17:07:13;13.98;;;6.10;;
70322;SDS011;57735;56.264;43.898;2022-10-16T17:09:45;16.08;;;6.18;;